Hovedside
METAR-TAF:

METAR-TAF

Lufthavner :

Washington, Virginia, USA

Washington Dulles internasjonale lufthavn

breddegrad: 38-56-05N, lengdegrad: 077-26-51W, høyde over havet: 95 m

Gjeldene værobservasjon

Denne rapporten ble laget for 40 minutter siden, klokken 21:52 UTC
Vind 3 kt fra Øst-sørøst
Temperatur 14°C
Luftfuktighet 58%
Trykk 1020 hPa
Sikt: 16.1 km
Overskyet i en høyde av 5500 ft

METAR: KIAD 212152Z 11003KT 10SM OVC055 14/06 A3013 RMK AO2 SLP204 T01440056

Tid: 17:32 (22:32 UTC)

Varsel

Denne rapporten ble laget for 1 time og 36 minutter siden, klokken 20:56 UTC
Varsel gyldig fra 21. klokken 21 UTC til 22. klokken 24 UTC
Vind 5 kt fra Sør-sørøst
Sikt: 10 km
Brutte skyer i en høyde av 5000 ft
Fra 22. klokken 0000 UTC
Vind 5 kt fra Sør
Sikt: 10 km
Brutte skyer i en høyde av 5000 ft
Fra 22. klokken 1700 UTC
Vind 9 kt fra Sør
Sikt: 10 km
Brutte skyer i en høyde av 20000 ft

TAF: KIAD 212056Z 2121/2224 15005KT P6SM BKN050 FM220000 18005KT P6SM BKN050 FM221700 19009KT P6SM BKN200

Værobservasjoner og værvarsel for over 4000 flyplasser (METAR- og TAF-rapporter).

Tilgjengelige stasjoner er representert av de røde og gule prikkene på kartet.

Hold musepekeren over prikken for å se navnet på stasjonen.

Klikk så for å se værobservasjoner og -varsler.

For å forandre kartet kan du klikke på den grønne knappen med svart kryss for å zoome inn, på den grønne knappen med strek for å zoome ut, eller på de grønne pilene for å se tilstøtende kart.


METAR-TAF: